sensor_id;sensor_type;location;lat;lon;timestamp;pressure;altitude;pressure_sealevel;temperature;humidity
60246;BME280;46107;53.356;-1.524;2023-02-21T00:00:33;99153.62;;;8.74;74.00
60246;BME280;46107;53.356;-1.524;2023-02-21T00:03:01;99155.19;;;9.00;72.74
60246;BME280;46107;53.356;-1.524;2023-02-21T00:05:28;99145.74;;;8.63;73.77
60246;BME280;46107;53.356;-1.524;2023-02-21T00:07:56;99144.24;;;9.34;71.58
60246;BME280;46107;53.356;-1.524;2023-02-21T00:10:24;99144.31;;;8.88;72.20
60246;BME280;46107;53.356;-1.524;2023-02-21T00:12:51;99141.60;;;9.84;68.80
60246;BME280;46107;53.356;-1.524;2023-02-21T00:15:19;99140.32;;;9.58;69.16
60246;BME280;46107;53.356;-1.524;2023-02-21T00:17:47;99139.26;;;9.82;68.12
60246;BME280;46107;53.356;-1.524;2023-02-21T00:20:15;99135.11;;;8.97;71.85
60246;BME280;46107;53.356;-1.524;2023-02-21T00:22:43;99137.85;;;9.52;68.87
60246;BME280;46107;53.356;-1.524;2023-02-21T00:25:11;99136.57;;;9.13;70.16
60246;BME280;46107;53.356;-1.524;2023-02-21T00:27:38;99143.02;;;9.95;67.56
60246;BME280;46107;53.356;-1.524;2023-02-21T00:30:07;99141.63;;;10.04;67.39
60246;BME280;46107;53.356;-1.524;2023-02-21T00:32:35;99148.71;;;9.25;68.94
60246;BME280;46107;53.356;-1.524;2023-02-21T00:35:03;99139.93;;;9.57;68.59
60246;BME280;46107;53.356;-1.524;2023-02-21T00:37:31;99136.94;;;10.07;67.73
60246;BME280;46107;53.356;-1.524;2023-02-21T00:39:58;99130.43;;;10.35;66.37
60246;BME280;46107;53.356;-1.524;2023-02-21T00:42:25;99128.00;;;9.94;66.46
60246;BME280;46107;53.356;-1.524;2023-02-21T00:44:54;99132.84;;;9.84;67.15
60246;BME280;46107;53.356;-1.524;2023-02-21T00:47:21;99133.48;;;9.57;67.57
60246;BME280;46107;53.356;-1.524;2023-02-21T00:49:50;99120.60;;;10.16;66.39
60246;BME280;46107;53.356;-1.524;2023-02-21T00:52:17;99129.15;;;9.76;68.54
60246;BME280;46107;53.356;-1.524;2023-02-21T00:54:46;99124.61;;;9.38;68.76
60246;BME280;46107;53.356;-1.524;2023-02-21T00:57:14;99124.89;;;9.60;68.43
60246;BME280;46107;53.356;-1.524;2023-02-21T00:59:41;99113.18;;;10.56;65.05
60246;BME280;46107;53.356;-1.524;2023-02-21T01:02:09;99118.25;;;9.38;69.12
60246;BME280;46107;53.356;-1.524;2023-02-21T01:04:37;99111.73;;;7.33;77.12
60246;BME280;46107;53.356;-1.524;2023-02-21T01:07:05;99104.65;;;8.25;75.03
60246;BME280;46107;53.356;-1.524;2023-02-21T01:09:33;99107.93;;;9.44;70.83
60246;BME280;46107;53.356;-1.524;2023-02-21T01:12:00;99107.90;;;8.89;71.93
60246;BME280;46107;53.356;-1.524;2023-02-21T01:14:28;99109.22;;;8.75;72.97
60246;BME280;46107;53.356;-1.524;2023-02-21T01:16:55;99102.63;;;9.01;71.66
60246;BME280;46107;53.356;-1.524;2023-02-21T01:19:26;99103.47;;;8.92;69.48
60246;BME280;46107;53.356;-1.524;2023-02-21T01:21:54;99103.11;;;8.75;72.12
60246;BME280;46107;53.356;-1.524;2023-02-21T01:24:22;99097.38;;;8.50;73.71
60246;BME280;46107;53.356;-1.524;2023-02-21T01:26:55;99095.24;;;8.61;71.93
60246;BME280;46107;53.356;-1.524;2023-02-21T01:29:22;99094.87;;;8.21;72.57
60246;BME280;46107;53.356;-1.524;2023-02-21T01:31:55;99096.08;;;7.78;74.65
60246;BME280;46107;53.356;-1.524;2023-02-21T01:34:22;99092.42;;;8.53;73.73
60246;BME280;46107;53.356;-1.524;2023-02-21T01:36:51;99090.18;;;8.48;72.76
60246;BME280;46107;53.356;-1.524;2023-02-21T01:39:18;99085.95;;;8.93;71.00
60246;BME280;46107;53.356;-1.524;2023-02-21T01:41:46;99085.77;;;9.32;69.02
60246;BME280;46107;53.356;-1.524;2023-02-21T01:44:34;99087.20;;;9.25;69.62
60246;BME280;46107;53.356;-1.524;2023-02-21T01:47:02;99087.87;;;8.89;71.64
60246;BME280;46107;53.356;-1.524;2023-02-21T01:49:31;99089.56;;;9.52;69.74
60246;BME280;46107;53.356;-1.524;2023-02-21T01:52:01;99086.91;;;9.20;70.09
60246;BME280;46107;53.356;-1.524;2023-02-21T01:54:31;99087.17;;;9.31;67.61
60246;BME280;46107;53.356;-1.524;2023-02-21T01:57:02;99084.53;;;9.35;68.26
60246;BME280;46107;53.356;-1.524;2023-02-21T01:59:30;99075.49;;;9.88;66.05
60246;BME280;46107;53.356;-1.524;2023-02-21T02:02:02;99071.01;;;10.02;64.60
60246;BME280;46107;53.356;-1.524;2023-02-21T02:04:31;99073.18;;;9.74;64.85
60246;BME280;46107;53.356;-1.524;2023-02-21T02:06:59;99079.25;;;9.02;67.83
60246;BME280;46107;53.356;-1.524;2023-02-21T02:09:27;99082.33;;;9.20;68.72
60246;BME280;46107;53.356;-1.524;2023-02-21T02:12:08;99090.62;;;8.78;70.70
60246;BME280;46107;53.356;-1.524;2023-02-21T02:15:19;99090.10;;;9.31;69.42
60246;BME280;46107;53.356;-1.524;2023-02-21T02:18:05;99090.35;;;8.50;69.72
60246;BME280;46107;53.356;-1.524;2023-02-21T02:20:56;99095.50;;;9.06;69.49
60246;BME280;46107;53.356;-1.524;2023-02-21T02:23:47;99092.37;;;8.88;69.00
60246;BME280;46107;53.356;-1.524;2023-02-21T02:28:57;99086.19;;;10.07;66.11
60246;BME280;46107;53.356;-1.524;2023-02-21T02:31:44;99086.34;;;8.82;69.03
60246;BME280;46107;53.356;-1.524;2023-02-21T02:34:35;99090.08;;;8.49;69.13
60246;BME280;46107;53.356;-1.524;2023-02-21T02:37:11;99093.54;;;9.43;66.91
60246;BME280;46107;53.356;-1.524;2023-02-21T02:39:46;99090.65;;;9.42;66.83
60246;BME280;46107;53.356;-1.524;2023-02-21T02:42:26;99091.50;;;9.06;67.26
60246;BME280;46107;53.356;-1.524;2023-02-21T02:45:02;99087.79;;;9.61;64.96
60246;BME280;46107;53.356;-1.524;2023-02-21T02:47:35;99089.54;;;9.59;65.05
60246;BME280;46107;53.356;-1.524;2023-02-21T02:50:05;99086.92;;;8.92;67.99
60246;BME280;46107;53.356;-1.524;2023-02-21T02:52:35;99086.20;;;9.38;66.22
60246;BME280;46107;53.356;-1.524;2023-02-21T02:55:18;99084.01;;;9.51;66.83
60246;BME280;46107;53.356;-1.524;2023-02-21T02:57:50;99084.70;;;9.30;67.41
60246;BME280;46107;53.356;-1.524;2023-02-21T03:00:19;99083.57;;;9.61;66.45
60246;BME280;46107;53.356;-1.524;2023-02-21T03:02:59;99086.27;;;9.95;65.25
60246;BME280;46107;53.356;-1.524;2023-02-21T03:05:42;99089.46;;;8.75;69.16
60246;BME280;46107;53.356;-1.524;2023-02-21T03:08:23;99087.26;;;9.22;66.99
60246;BME280;46107;53.356;-1.524;2023-02-21T03:11:00;99085.71;;;8.94;67.94
60246;BME280;46107;53.356;-1.524;2023-02-21T03:13:35;99091.45;;;8.71;68.88
60246;BME280;46107;53.356;-1.524;2023-02-21T03:16:11;99085.51;;;9.14;68.05
60246;BME280;46107;53.356;-1.524;2023-02-21T03:18:43;99081.27;;;9.35;66.46
60246;BME280;46107;53.356;-1.524;2023-02-21T03:21:15;99083.15;;;8.80;69.88
60246;BME280;46107;53.356;-1.524;2023-02-21T03:23:47;99081.73;;;9.14;67.99
60246;BME280;46107;53.356;-1.524;2023-02-21T03:26:17;99079.98;;;9.20;68.10
60246;BME280;46107;53.356;-1.524;2023-02-21T03:28:45;99080.29;;;8.60;68.16
60246;BME280;46107;53.356;-1.524;2023-02-21T03:31:16;99080.27;;;8.96;68.25
60246;BME280;46107;53.356;-1.524;2023-02-21T03:33:45;99074.28;;;9.74;65.23
60246;BME280;46107;53.356;-1.524;2023-02-21T03:36:13;99069.18;;;9.21;65.61
60246;BME280;46107;53.356;-1.524;2023-02-21T03:38:43;99066.90;;;9.66;65.79
60246;BME280;46107;53.356;-1.524;2023-02-21T03:41:11;99069.20;;;9.27;65.29
60246;BME280;46107;53.356;-1.524;2023-02-21T03:43:40;99075.25;;;8.74;67.47
60246;BME280;46107;53.356;-1.524;2023-02-21T03:46:08;99076.41;;;7.95;70.97
60246;BME280;46107;53.356;-1.524;2023-02-21T03:48:36;99063.73;;;9.71;65.56
60246;BME280;46107;53.356;-1.524;2023-02-21T03:51:03;99069.70;;;8.61;69.56
60246;BME280;46107;53.356;-1.524;2023-02-21T03:53:31;99071.61;;;8.80;68.41
60246;BME280;46107;53.356;-1.524;2023-02-21T03:55:58;99066.53;;;9.31;65.91
60246;BME280;46107;53.356;-1.524;2023-02-21T03:58:26;99072.24;;;8.48;68.02
60246;BME280;46107;53.356;-1.524;2023-02-21T04:00:54;99072.61;;;8.14;67.98
60246;BME280;46107;53.356;-1.524;2023-02-21T04:03:22;99061.21;;;9.88;64.91
60246;BME280;46107;53.356;-1.524;2023-02-21T04:05:51;99058.10;;;9.62;65.76
60246;BME280;46107;53.356;-1.524;2023-02-21T04:08:18;99063.87;;;9.14;65.46
60246;BME280;46107;53.356;-1.524;2023-02-21T04:10:45;99065.41;;;9.56;63.84
60246;BME280;46107;53.356;-1.524;2023-02-21T04:13:13;99066.22;;;8.93;65.62
60246;BME280;46107;53.356;-1.524;2023-02-21T04:15:40;99064.34;;;9.25;65.77
60246;BME280;46107;53.356;-1.524;2023-02-21T04:18:07;99059.36;;;9.23;65.49
60246;BME280;46107;53.356;-1.524;2023-02-21T04:20:34;99059.59;;;8.79;67.97
60246;BME280;46107;53.356;-1.524;2023-02-21T04:23:02;99061.96;;;8.77;66.88
60246;BME280;46107;53.356;-1.524;2023-02-21T04:25:30;99060.12;;;9.22;66.05
60246;BME280;46107;53.356;-1.524;2023-02-21T04:27:58;99054.86;;;9.53;64.75
60246;BME280;46107;53.356;-1.524;2023-02-21T04:30:26;99050.39;;;10.13;62.63
60246;BME280;46107;53.356;-1.524;2023-02-21T04:32:53;99044.48;;;10.52;59.85
60246;BME280;46107;53.356;-1.524;2023-02-21T04:35:20;99041.87;;;9.73;61.83
60246;BME280;46107;53.356;-1.524;2023-02-21T04:37:49;99038.48;;;9.97;61.15
60246;BME280;46107;53.356;-1.524;2023-02-21T04:40:17;99039.08;;;10.03;61.76
60246;BME280;46107;53.356;-1.524;2023-02-21T04:42:46;99046.69;;;9.03;65.41
60246;BME280;46107;53.356;-1.524;2023-02-21T04:45:14;99035.74;;;9.89;61.66
60246;BME280;46107;53.356;-1.524;2023-02-21T04:47:41;99030.28;;;9.87;61.52
60246;BME280;46107;53.356;-1.524;2023-02-21T04:50:09;99035.61;;;9.37;62.03
60246;BME280;46107;53.356;-1.524;2023-02-21T04:52:37;99039.91;;;8.87;64.48
60246;BME280;46107;53.356;-1.524;2023-02-21T04:55:05;99040.57;;;8.44;64.22
60246;BME280;46107;53.356;-1.524;2023-02-21T04:57:33;99038.78;;;8.57;66.58
60246;BME280;46107;53.356;-1.524;2023-02-21T05:00:02;99041.03;;;8.48;66.51
60246;BME280;46107;53.356;-1.524;2023-02-21T05:02:30;99036.15;;;8.86;66.27
60246;BME280;46107;53.356;-1.524;2023-02-21T05:04:57;99032.65;;;8.22;68.50
60246;BME280;46107;53.356;-1.524;2023-02-21T05:07:25;99027.05;;;8.15;70.35
60246;BME280;46107;53.356;-1.524;2023-02-21T05:09:52;99026.54;;;7.47;72.63
60246;BME280;46107;53.356;-1.524;2023-02-21T05:12:20;99035.09;;;7.46;72.60
60246;BME280;46107;53.356;-1.524;2023-02-21T05:14:48;99036.59;;;7.91;73.53
60246;BME280;46107;53.356;-1.524;2023-02-21T05:17:15;99030.83;;;7.85;71.65
60246;BME280;46107;53.356;-1.524;2023-02-21T05:19:45;99033.17;;;7.47;74.97
60246;BME280;46107;53.356;-1.524;2023-02-21T05:22:13;99030.47;;;7.49;72.57
60246;BME280;46107;53.356;-1.524;2023-02-21T05:24:42;99028.82;;;7.42;72.44
60246;BME280;46107;53.356;-1.524;2023-02-21T05:27:09;99028.15;;;8.49;70.40
60246;BME280;46107;53.356;-1.524;2023-02-21T05:29:37;99022.19;;;8.17;71.42
60246;BME280;46107;53.356;-1.524;2023-02-21T05:32:05;99026.25;;;8.41;70.59
60246;BME280;46107;53.356;-1.524;2023-02-21T05:34:32;99022.76;;;7.97;70.37
60246;BME280;46107;53.356;-1.524;2023-02-21T05:36:59;99017.60;;;7.72;73.34
60246;BME280;46107;53.356;-1.524;2023-02-21T05:39:27;99016.78;;;7.16;73.93
60246;BME280;46107;53.356;-1.524;2023-02-21T05:41:54;99013.55;;;7.34;74.16
60246;BME280;46107;53.356;-1.524;2023-02-21T05:44:21;99013.83;;;7.38;72.70
60246;BME280;46107;53.356;-1.524;2023-02-21T05:46:50;99018.90;;;7.27;74.84
60246;BME280;46107;53.356;-1.524;2023-02-21T05:49:17;99014.24;;;7.64;73.37
60246;BME280;46107;53.356;-1.524;2023-02-21T05:51:45;99019.92;;;7.48;72.90
60246;BME280;46107;53.356;-1.524;2023-02-21T05:54:15;99017.61;;;7.70;74.06
60246;BME280;46107;53.356;-1.524;2023-02-21T05:56:45;99016.94;;;7.69;72.51
60246;BME280;46107;53.356;-1.524;2023-02-21T05:59:16;99010.42;;;6.62;75.92
60246;BME280;46107;53.356;-1.524;2023-02-21T06:01:44;99007.10;;;7.55;73.17
60246;BME280;46107;53.356;-1.524;2023-02-21T06:04:11;99002.95;;;8.05;70.78
60246;BME280;46107;53.356;-1.524;2023-02-21T06:06:39;99003.96;;;8.10;70.75
60246;BME280;46107;53.356;-1.524;2023-02-21T06:09:07;99004.99;;;7.37;70.94
60246;BME280;46107;53.356;-1.524;2023-02-21T06:11:37;99007.21;;;7.88;70.27
60246;BME280;46107;53.356;-1.524;2023-02-21T06:14:07;99004.99;;;7.85;70.59
60246;BME280;46107;53.356;-1.524;2023-02-21T06:16:39;99007.66;;;7.94;69.05
60246;BME280;46107;53.356;-1.524;2023-02-21T06:19:08;99003.71;;;7.72;69.87
60246;BME280;46107;53.356;-1.524;2023-02-21T06:21:35;99004.58;;;7.69;69.30
60246;BME280;46107;53.356;-1.524;2023-02-21T06:24:03;99004.41;;;7.57;68.47
60246;BME280;46107;53.356;-1.524;2023-02-21T06:26:31;99005.75;;;7.67;69.30
60246;BME280;46107;53.356;-1.524;2023-02-21T06:28:58;99010.12;;;7.91;67.61
60246;BME280;46107;53.356;-1.524;2023-02-21T06:31:26;99005.29;;;8.76;64.88
60246;BME280;46107;53.356;-1.524;2023-02-21T06:33:53;99010.38;;;8.26;65.51
60246;BME280;46107;53.356;-1.524;2023-02-21T06:36:22;99008.84;;;9.03;64.00
60246;BME280;46107;53.356;-1.524;2023-02-21T06:38:53;99015.39;;;8.58;64.53
60246;BME280;46107;53.356;-1.524;2023-02-21T06:41:23;99016.15;;;8.82;64.20
60246;BME280;46107;53.356;-1.524;2023-02-21T06:43:51;99010.82;;;8.44;64.65
60246;BME280;46107;53.356;-1.524;2023-02-21T06:46:21;99009.50;;;7.76;65.30
60246;BME280;46107;53.356;-1.524;2023-02-21T06:48:50;99005.64;;;8.36;63.74
60246;BME280;46107;53.356;-1.524;2023-02-21T06:51:18;99006.71;;;8.61;62.83
60246;BME280;46107;53.356;-1.524;2023-02-21T06:53:49;99003.66;;;8.67;61.80
60246;BME280;46107;53.356;-1.524;2023-02-21T06:56:17;99005.39;;;8.94;61.15
60246;BME280;46107;53.356;-1.524;2023-02-21T06:58:45;99007.37;;;8.19;64.43
60246;BME280;46107;53.356;-1.524;2023-02-21T07:01:12;99003.73;;;8.50;63.26
60246;BME280;46107;53.356;-1.524;2023-02-21T07:03:40;99002.17;;;8.93;61.04
60246;BME280;46107;53.356;-1.524;2023-02-21T07:06:07;99008.12;;;8.85;59.95
60246;BME280;46107;53.356;-1.524;2023-02-21T07:08:34;99002.21;;;8.79;59.85
60246;BME280;46107;53.356;-1.524;2023-02-21T07:11:03;99005.40;;;7.53;64.58
60246;BME280;46107;53.356;-1.524;2023-02-21T07:13:31;99005.26;;;8.35;64.19
60246;BME280;46107;53.356;-1.524;2023-02-21T07:15:58;99006.60;;;7.32;67.32
60246;BME280;46107;53.356;-1.524;2023-02-21T07:18:25;99009.40;;;8.27;64.66
60246;BME280;46107;53.356;-1.524;2023-02-21T07:20:53;99012.18;;;8.49;64.03
60246;BME280;46107;53.356;-1.524;2023-02-21T07:23:20;99011.58;;;8.88;63.29
60246;BME280;46107;53.356;-1.524;2023-02-21T07:25:48;99006.60;;;9.32;62.05
60246;BME280;46107;53.356;-1.524;2023-02-21T07:28:17;99012.09;;;8.46;63.86
60246;BME280;46107;53.356;-1.524;2023-02-21T07:30:45;99008.09;;;9.27;61.62
60246;BME280;46107;53.356;-1.524;2023-02-21T07:33:12;99007.29;;;9.40;61.30
60246;BME280;46107;53.356;-1.524;2023-02-21T07:35:40;99010.54;;;8.70;63.77
60246;BME280;46107;53.356;-1.524;2023-02-21T07:38:07;99009.76;;;8.86;63.29
60246;BME280;46107;53.356;-1.524;2023-02-21T07:40:35;99001.31;;;9.33;61.60
60246;BME280;46107;53.356;-1.524;2023-02-21T07:43:02;99010.85;;;8.06;64.51
60246;BME280;46107;53.356;-1.524;2023-02-21T07:45:30;99004.79;;;8.37;66.01
60246;BME280;46107;53.356;-1.524;2023-02-21T07:47:57;99000.97;;;8.32;64.95
60246;BME280;46107;53.356;-1.524;2023-02-21T07:50:25;98996.55;;;8.80;65.10
60246;BME280;46107;53.356;-1.524;2023-02-21T07:52:52;98997.97;;;8.54;64.67
60246;BME280;46107;53.356;-1.524;2023-02-21T07:55:19;98999.77;;;8.49;65.54
60246;BME280;46107;53.356;-1.524;2023-02-21T07:57:47;98996.84;;;8.28;65.67
60246;BME280;46107;53.356;-1.524;2023-02-21T08:00:15;99001.57;;;8.94;64.60
60246;BME280;46107;53.356;-1.524;2023-02-21T08:02:46;99002.21;;;8.33;65.43
60246;BME280;46107;53.356;-1.524;2023-02-21T08:05:15;99003.56;;;8.13;65.81
60246;BME280;46107;53.356;-1.524;2023-02-21T08:07:42;99001.78;;;9.33;63.30
60246;BME280;46107;53.356;-1.524;2023-02-21T08:10:17;99003.50;;;8.29;64.89
60246;BME280;46107;53.356;-1.524;2023-02-21T08:12:45;99004.63;;;7.95;66.33
60246;BME280;46107;53.356;-1.524;2023-02-21T08:15:12;99008.48;;;8.45;64.67
60246;BME280;46107;53.356;-1.524;2023-02-21T08:17:40;99005.36;;;9.32;62.04
60246;BME280;46107;53.356;-1.524;2023-02-21T08:20:08;99011.07;;;8.41;63.76
60246;BME280;46107;53.356;-1.524;2023-02-21T08:22:36;99002.65;;;8.95;63.59
60246;BME280;46107;53.356;-1.524;2023-02-21T08:25:04;98997.89;;;9.48;61.73
60246;BME280;46107;53.356;-1.524;2023-02-21T08:27:31;98996.59;;;9.17;62.68
60246;BME280;46107;53.356;-1.524;2023-02-21T08:29:59;98997.09;;;9.37;61.42
60246;BME280;46107;53.356;-1.524;2023-02-21T08:32:26;98996.96;;;9.87;60.24
60246;BME280;46107;53.356;-1.524;2023-02-21T08:34:53;99000.35;;;9.59;61.67
60246;BME280;46107;53.356;-1.524;2023-02-21T08:37:21;99000.84;;;9.40;61.43
60246;BME280;46107;53.356;-1.524;2023-02-21T08:39:51;98999.09;;;8.89;63.50
60246;BME280;46107;53.356;-1.524;2023-02-21T08:42:19;98992.67;;;9.71;60.60
60246;BME280;46107;53.356;-1.524;2023-02-21T08:44:47;98993.53;;;9.05;63.27
60246;BME280;46107;53.356;-1.524;2023-02-21T08:47:15;98991.65;;;9.34;61.85
60246;BME280;46107;53.356;-1.524;2023-02-21T08:49:44;98989.25;;;9.11;62.98
60246;BME280;46107;53.356;-1.524;2023-02-21T08:52:12;98988.94;;;9.59;60.94
60246;BME280;46107;53.356;-1.524;2023-02-21T08:54:40;98988.05;;;9.52;61.81
60246;BME280;46107;53.356;-1.524;2023-02-21T08:57:08;98988.39;;;8.97;63.93
60246;BME280;46107;53.356;-1.524;2023-02-21T08:59:39;98988.65;;;9.86;62.00
60246;BME280;46107;53.356;-1.524;2023-02-21T09:02:13;98995.59;;;8.92;63.44
60246;BME280;46107;53.356;-1.524;2023-02-21T09:04:41;98997.58;;;8.72;65.49
60246;BME280;46107;53.356;-1.524;2023-02-21T09:07:10;98994.00;;;9.41;63.08
60246;BME280;46107;53.356;-1.524;2023-02-21T09:09:38;98989.79;;;9.24;63.06
60246;BME280;46107;53.356;-1.524;2023-02-21T09:12:06;98992.48;;;9.33;63.21
60246;BME280;46107;53.356;-1.524;2023-02-21T09:14:33;98991.11;;;9.37;62.50
60246;BME280;46107;53.356;-1.524;2023-02-21T09:17:02;98989.58;;;9.07;62.75
60246;BME280;46107;53.356;-1.524;2023-02-21T09:19:29;98989.71;;;8.94;63.63
60246;BME280;46107;53.356;-1.524;2023-02-21T09:21:57;98988.46;;;9.14;62.85
60246;BME280;46107;53.356;-1.524;2023-02-21T09:24:25;98987.79;;;8.77;64.21
60246;BME280;46107;53.356;-1.524;2023-02-21T09:26:54;98986.35;;;9.17;64.29
60246;BME280;46107;53.356;-1.524;2023-02-21T09:29:22;98992.77;;;8.72;65.44
60246;BME280;46107;53.356;-1.524;2023-02-21T09:31:50;98994.90;;;8.64;66.46
60246;BME280;46107;53.356;-1.524;2023-02-21T09:34:19;98993.80;;;8.07;67.01
60246;BME280;46107;53.356;-1.524;2023-02-21T09:36:47;98982.98;;;9.61;64.78
60246;BME280;46107;53.356;-1.524;2023-02-21T09:39:15;98986.42;;;8.93;63.81
60246;BME280;46107;53.356;-1.524;2023-02-21T09:41:43;98987.67;;;9.79;61.98
60246;BME280;46107;53.356;-1.524;2023-02-21T09:44:16;98987.97;;;9.08;63.94
60246;BME280;46107;53.356;-1.524;2023-02-21T09:46:46;98989.32;;;9.17;62.99
60246;BME280;46107;53.356;-1.524;2023-02-21T09:49:22;98986.41;;;8.74;64.58
60246;BME280;46107;53.356;-1.524;2023-02-21T09:51:52;98985.90;;;9.26;63.29
60246;BME280;46107;53.356;-1.524;2023-02-21T09:54:26;98987.17;;;8.70;63.65
60246;BME280;46107;53.356;-1.524;2023-02-21T09:56:57;98989.45;;;8.75;63.27
60246;BME280;46107;53.356;-1.524;2023-02-21T09:59:25;98985.31;;;9.79;62.07
60246;BME280;46107;53.356;-1.524;2023-02-21T10:02:01;98992.14;;;9.19;63.42
60246;BME280;46107;53.356;-1.524;2023-02-21T10:04:38;98993.16;;;8.63;64.70
60246;BME280;46107;53.356;-1.524;2023-02-21T10:07:17;98986.27;;;9.67;62.61
60246;BME280;46107;53.356;-1.524;2023-02-21T10:09:52;98994.38;;;8.49;65.64
60246;BME280;46107;53.356;-1.524;2023-02-21T10:12:27;98991.89;;;9.04;64.69
60246;BME280;46107;53.356;-1.524;2023-02-21T10:15:15;98992.73;;;8.85;64.49
60246;BME280;46107;53.356;-1.524;2023-02-21T10:17:48;98994.21;;;9.49;61.00
60246;BME280;46107;53.356;-1.524;2023-02-21T10:20:26;98994.54;;;9.54;60.94
60246;BME280;46107;53.356;-1.524;2023-02-21T10:22:54;98995.22;;;9.11;61.82
60246;BME280;46107;53.356;-1.524;2023-02-21T10:25:26;98991.73;;;9.66;61.84
60246;BME280;46107;53.356;-1.524;2023-02-21T10:27:54;98989.90;;;8.92;62.65
60246;BME280;46107;53.356;-1.524;2023-02-21T10:30:32;98993.29;;;8.40;64.29
60246;BME280;46107;53.356;-1.524;2023-02-21T10:33:01;98988.99;;;8.90;63.67
60246;BME280;46107;53.356;-1.524;2023-02-21T10:35:28;98989.37;;;9.27;62.85
60246;BME280;46107;53.356;-1.524;2023-02-21T10:37:59;98990.85;;;9.17;62.30
60246;BME280;46107;53.356;-1.524;2023-02-21T10:40:31;98993.32;;;8.27;65.67
60246;BME280;46107;53.356;-1.524;2023-02-21T10:43:07;98984.35;;;9.56;62.13
60246;BME280;46107;53.356;-1.524;2023-02-21T10:45:39;98995.91;;;7.68;67.53
60246;BME280;46107;53.356;-1.524;2023-02-21T10:48:09;98994.97;;;8.79;64.17
60246;BME280;46107;53.356;-1.524;2023-02-21T10:50:42;98992.81;;;8.25;66.26
60246;BME280;46107;53.356;-1.524;2023-02-21T10:53:23;98992.97;;;7.91;67.51
60246;BME280;46107;53.356;-1.524;2023-02-21T10:56:37;98993.50;;;8.25;66.81
60246;BME280;46107;53.356;-1.524;2023-02-21T10:59:06;98992.18;;;9.33;62.58
60246;BME280;46107;53.356;-1.524;2023-02-21T11:01:37;99000.58;;;7.75;67.45
60246;BME280;46107;53.356;-1.524;2023-02-21T11:04:23;98994.26;;;7.41;68.91
60246;BME280;46107;53.356;-1.524;2023-02-21T11:06:54;98994.67;;;7.63;67.91
60246;BME280;46107;53.356;-1.524;2023-02-21T11:09:31;98986.56;;;9.50;63.63
60246;BME280;46107;53.356;-1.524;2023-02-21T11:12:02;98985.04;;;9.10;63.17
60246;BME280;46107;53.356;-1.524;2023-02-21T11:14:31;98989.49;;;8.98;65.08
60246;BME280;46107;53.356;-1.524;2023-02-21T11:17:16;98989.63;;;8.63;63.64
60246;BME280;46107;53.356;-1.524;2023-02-21T11:19:47;98988.63;;;8.83;63.58
60246;BME280;46107;53.356;-1.524;2023-02-21T11:22:17;98982.08;;;9.25;62.19
60246;BME280;46107;53.356;-1.524;2023-02-21T11:24:51;98986.89;;;8.21;64.15
60246;BME280;46107;53.356;-1.524;2023-02-21T11:27:20;98988.20;;;7.97;67.18
60246;BME280;46107;53.356;-1.524;2023-02-21T11:29:49;98978.13;;;9.17;63.04
60246;BME280;46107;53.356;-1.524;2023-02-21T11:32:27;98978.43;;;8.89;64.32
60246;BME280;46107;53.356;-1.524;2023-02-21T11:35:22;98978.85;;;8.48;65.18
60246;BME280;46107;53.356;-1.524;2023-02-21T11:37:53;98970.70;;;8.95;63.11
60246;BME280;46107;53.356;-1.524;2023-02-21T11:40:33;98963.29;;;8.93;61.82
60246;BME280;46107;53.356;-1.524;2023-02-21T11:43:13;98959.17;;;9.23;61.44
60246;BME280;46107;53.356;-1.524;2023-02-21T11:45:51;98951.78;;;9.59;60.84
60246;BME280;46107;53.356;-1.524;2023-02-21T11:48:23;98952.07;;;9.04;62.64
60246;BME280;46107;53.356;-1.524;2023-02-21T11:50:53;98947.71;;;9.13;62.31
60246;BME280;46107;53.356;-1.524;2023-02-21T11:53:25;98945.98;;;9.66;61.29
60246;BME280;46107;53.356;-1.524;2023-02-21T11:55:59;98941.83;;;9.92;59.83
60246;BME280;46107;53.356;-1.524;2023-02-21T11:58:36;98937.42;;;9.05;62.55
60246;BME280;46107;53.356;-1.524;2023-02-21T12:01:11;98926.62;;;9.00;64.18
60246;BME280;46107;53.356;-1.524;2023-02-21T12:03:51;98926.54;;;9.30;62.33
60246;BME280;46107;53.356;-1.524;2023-02-21T12:06:28;98927.26;;;9.16;63.87
60246;BME280;46107;53.356;-1.524;2023-02-21T12:09:03;98922.92;;;9.15;63.27
60246;BME280;46107;53.356;-1.524;2023-02-21T12:11:43;98918.55;;;9.08;62.45
60246;BME280;46107;53.356;-1.524;2023-02-21T12:14:22;98918.89;;;9.27;61.98
60246;BME280;46107;53.356;-1.524;2023-02-21T12:17:08;98910.51;;;9.34;61.48
60246;BME280;46107;53.356;-1.524;2023-02-21T12:19:54;98908.74;;;9.60;60.81
60246;BME280;46107;53.356;-1.524;2023-02-21T12:22:40;98904.98;;;9.83;61.98
60246;BME280;46107;53.356;-1.524;2023-02-21T12:25:18;98902.91;;;9.63;62.61
60246;BME280;46107;53.356;-1.524;2023-02-21T12:27:53;98894.16;;;8.90;63.44
60246;BME280;46107;53.356;-1.524;2023-02-21T12:30:36;98892.31;;;9.55;62.04
60246;BME280;46107;53.356;-1.524;2023-02-21T12:33:18;98889.99;;;10.42;59.69
60246;BME280;46107;53.356;-1.524;2023-02-21T12:36:16;98888.26;;;8.50;62.13
60246;BME280;46107;53.356;-1.524;2023-02-21T12:38:53;98881.35;;;9.04;62.10
60246;BME280;46107;53.356;-1.524;2023-02-21T12:41:34;98876.01;;;9.78;60.97
60246;BME280;46107;53.356;-1.524;2023-02-21T12:44:12;98866.61;;;9.64;59.54
60246;BME280;46107;53.356;-1.524;2023-02-21T12:46:45;98867.68;;;8.38;63.64
60246;BME280;46107;53.356;-1.524;2023-02-21T12:49:20;98870.21;;;9.21;61.29
60246;BME280;46107;53.356;-1.524;2023-02-21T12:51:55;98867.50;;;9.15;62.49
60246;BME280;46107;53.356;-1.524;2023-02-21T12:54:35;98863.59;;;9.66;59.89
60246;BME280;46107;53.356;-1.524;2023-02-21T12:57:09;98856.75;;;8.45;63.83
60246;BME280;46107;53.356;-1.524;2023-02-21T12:59:47;98853.55;;;9.61;61.69
60246;BME280;46107;53.356;-1.524;2023-02-21T13:02:25;98847.25;;;8.95;61.79
60246;BME280;46107;53.356;-1.524;2023-02-21T13:04:56;98843.08;;;9.06;62.47
60246;BME280;46107;53.356;-1.524;2023-02-21T13:07:28;98840.33;;;9.45;61.75
60246;BME280;46107;53.356;-1.524;2023-02-21T13:10:03;98835.39;;;9.32;60.56
60246;BME280;46107;53.356;-1.524;2023-02-21T13:12:36;98825.44;;;8.98;62.84
60246;BME280;46107;53.356;-1.524;2023-02-21T13:15:15;98822.55;;;8.67;61.89
60246;BME280;46107;53.356;-1.524;2023-02-21T13:17:51;98813.93;;;8.98;60.03
60246;BME280;46107;53.356;-1.524;2023-02-21T13:20:24;98810.68;;;9.23;60.85
60246;BME280;46107;53.356;-1.524;2023-02-21T13:24:35;98806.59;;;9.24;60.86